aviador You're here:

KTOI Decoded Metar

TROY in AL, USA
Report Time2017-08-19 10:53:00
UTC Time2017-08-19 11:12:44
Flight Rules vfr VFR
WindCalm
Visibility9999 m
Phenomena:N/A
Clouds:N/A
CeilingNone
Temp22°C (ISA +8)
Dew Point22°C (100% RH)
QNH1016 hPa
Density Alt1,542 ft
Elevation387 ft
Report Wrong Elevation
Raw Report
KTOI 191053Z AUTO 00000KT 8SM CLR 22/22 A3000 RMK AO2 SLP152
T02170217=

Extra information for KTOI:More info

Metar Taf Metar & Taf Last 4 Metars F.Rules Stats Wind Profile Meteogram Temp Stats Airport Information Weather charts Add Link Nearby VenuesMetar ALERT Operation Metar Decoded Social comments

AIRNAV info for KTOI